Time;durP1;ratioP1;P1;durP2;ratioP2;P2;SDS_P1;SDS_P2;PMS_P1;PMS_P2;Temp;Humidity;BMP_temperature;BMP_pressure;BME280_temperature;BME280_humidity;BME280_pressure;Samples;Min_cycle;Max_cycle;Signal;HPM_P1;HPM_P2
2023/05/25 00:00:19;;;;;;;0.50;0.50;;;;;;;8.57;69.37;97266.72;29396;200;63005;-53
2023/05/25 00:00:50;;;;;;;0.50;0.50;;;;;;;8.59;69.17;97266.47;29396;273;63009;-53
2023/05/25 00:01:23;;;;;;;1.50;1.05;;;;;;;8.63;68.96;97267.53;29396;212;63004;-52
2023/05/25 00:01:54;;;;;;;0.50;0.50;;;;;;;8.66;68.58;97264.31;29396;224;63009;-53
2023/05/25 00:02:26;;;;;;;0.50;0.50;;;;;;;8.66;68.70;97262.38;29396;222;63004;-53
2023/05/25 00:02:58;;;;;;;0.52;0.52;;;;;;;8.66;68.63;97258.91;29395;334;64013;-53
2023/05/25 00:03:30;;;;;;;0.50;0.50;;;;;;;8.66;68.60;97261.59;29396;220;63004;-52
2023/05/25 00:04:02;;;;;;;0.50;0.50;;;;;;;8.66;68.34;97265.09;29395;271;64009;-53
2023/05/25 00:04:34;;;;;;;0.50;0.50;;;;;;;8.67;68.39;97260.50;29396;203;63007;-52
2023/05/25 00:05:08;;;;;;;0.55;0.55;;;;;;;8.67;68.70;97266.72;29396;246;63009;-52
2023/05/25 00:05:39;;;;;;;0.60;0.60;;;;;;;8.67;68.85;97258.59;29396;221;63018;-52
2023/05/25 00:06:11;;;;;;;0.60;0.60;;;;;;;8.67;69.11;97253.19;29396;216;63014;-52
2023/05/25 00:06:44;;;;;;;0.50;0.50;;;;;;;8.67;69.23;97263.19;29395;259;64009;-53
2023/05/25 00:07:16;;;;;;;0.55;0.55;;;;;;;8.66;69.33;97265.09;29396;220;63022;-53
2023/05/25 00:07:49;;;;;;;0.50;0.50;;;;;;;8.66;69.52;97265.09;29396;255;63005;-54
2023/05/25 00:08:20;;;;;;;0.50;0.50;;;;;;;8.65;69.53;97260.78;29395;338;64013;-53
2023/05/25 00:08:54;;;;;;;0.60;0.60;;;;;;;8.65;70.71;97266.19;29396;207;63004;-52
2023/05/25 00:09:27;;;;;;;0.50;0.50;;;;;;;8.66;70.22;97264.31;29396;224;63009;-52
2023/05/25 00:09:58;;;;;;;0.50;0.50;;;;;;;8.67;69.57;97266.72;29396;234;63004;-61
2023/05/25 00:10:30;;;;;;;0.50;0.50;;;;;;;8.66;70.10;97264.31;29396;304;63009;-52
2023/05/25 00:11:01;;;;;;;0.50;0.50;;;;;;;8.66;70.63;97254.25;29396;202;63004;-52
2023/05/25 00:11:32;;;;;;;0.50;0.50;;;;;;;8.64;70.61;97259.16;29396;286;63009;-61
2023/05/25 00:12:04;;;;;;;0.60;0.60;;;;;;;8.65;69.94;97268.91;29396;239;63001;-52
2023/05/25 00:12:36;;;;;;;0.82;0.82;;;;;;;8.67;69.76;97264.00;29395;218;64004;-62
2023/05/25 00:13:08;;;;;;;0.50;0.50;;;;;;;8.69;69.78;97253.72;29396;288;63007;-61
2023/05/25 00:13:40;;;;;;;0.60;0.60;;;;;;;8.71;69.33;97266.97;29396;246;63015;-53
2023/05/25 00:14:12;;;;;;;0.50;0.50;;;;;;;8.70;69.38;97255.34;29396;198;63005;-51
2023/05/25 00:14:43;;;;;;;0.50;0.50;;;;;;;8.69;70.17;97264.53;29396;223;63009;-52
2023/05/25 00:15:14;;;;;;;0.50;0.50;;;;;;;8.69;70.21;97269.16;29396;222;63005;-52
2023/05/25 00:15:46;;;;;;;0.50;0.50;;;;;;;8.68;69.38;97271.03;29396;224;63009;-61
2023/05/25 00:16:18;;;;;;;0.60;0.60;;;;;;;8.69;69.09;97258.31;29396;207;63004;-61
2023/05/25 00:16:50;;;;;;;0.50;0.50;;;;;;;8.68;69.59;97262.91;29395;197;64013;-52
2023/05/25 00:17:22;;;;;;;0.50;0.50;;;;;;;8.67;69.06;97261.31;29396;243;63008;-53
2023/05/25 00:17:54;;;;;;;0.50;0.50;;;;;;;8.69;69.21;97263.72;29395;293;64013;-52
2023/05/25 00:18:26;;;;;;;0.50;0.50;;;;;;;8.68;69.30;97262.09;29395;227;64008;-52
2023/05/25 00:18:57;;;;;;;0.50;0.50;;;;;;;8.67;69.40;97257.78;29396;221;63009;-52
2023/05/25 00:19:31;;;;;;;0.50;0.50;;;;;;;8.68;69.46;97262.91;29396;239;63005;-53
2023/05/25 00:20:06;;;;;;;0.50;0.50;;;;;;;8.69;69.14;97258.31;29396;247;63009;-52
2023/05/25 00:20:38;;;;;;;0.50;0.50;;;;;;;8.68;69.31;97262.91;29396;265;63005;-52
2023/05/25 00:21:10;;;;;;;0.50;0.50;;;;;;;8.68;69.02;97262.09;29396;203;63009;-53
2023/05/25 00:21:41;;;;;;;0.50;0.50;;;;;;;8.67;69.35;97261.31;29396;208;63005;-52
2023/05/25 00:22:13;;;;;;;0.50;0.50;;;;;;;8.69;68.69;97258.31;29396;226;63016;-53
2023/05/25 00:22:44;;;;;;;0.50;0.50;;;;;;;8.70;68.84;97263.47;29396;272;63004;-52
2023/05/25 00:23:16;;;;;;;0.50;0.50;;;;;;;8.71;68.48;97262.38;29396;218;63009;-52
2023/05/25 00:23:47;;;;;;;0.50;0.50;;;;;;;8.72;68.52;97247.78;29395;246;64009;-52
2023/05/25 00:24:18;;;;;;;0.50;0.50;;;;;;;8.73;68.66;97259.41;29396;206;63009;-52
2023/05/25 00:24:50;;;;;;;0.50;0.50;;;;;;;8.72;68.82;97258.59;29396;212;63006;-53
2023/05/25 00:25:21;;;;;;;0.52;0.52;;;;;;;8.71;69.27;97256.97;29396;330;63008;-52
2023/05/25 00:25:52;;;;;;;0.50;0.50;;;;;;;8.69;69.72;97259.13;29396;217;63004;-52
2023/05/25 00:26:23;;;;;;;0.50;0.50;;;;;;;8.68;70.08;97256.69;29396;248;63008;-53
2023/05/25 00:26:59;;;;;;;0.50;0.50;;;;;;;8.66;70.24;97262.38;29395;218;64009;-52
2023/05/25 00:27:30;;;;;;;0.50;0.50;;;;;;;8.67;70.54;97265.91;29396;229;63009;-52
2023/05/25 00:28:03;;;;;;;0.50;0.50;;;;;;;8.66;70.48;97254.25;29396;208;63005;-52
2023/05/25 00:28:35;;;;;;;0.50;0.50;;;;;;;8.66;70.22;97259.69;29396;219;63009;-53
2023/05/25 00:29:06;;;;;;;0.50;0.50;;;;;;;8.67;69.61;97252.38;29396;222;63008;-52
2023/05/25 00:29:37;;;;;;;0.60;0.60;;;;;;;8.67;69.71;97255.88;29396;207;63009;-52
2023/05/25 00:30:09;;;;;;;0.50;0.50;;;;;;;8.68;70.19;97256.69;29396;206;63004;-53
2023/05/25 00:30:42;;;;;;;0.50;0.50;;;;;;;8.67;70.99;97255.88;29396;203;63009;-52
2023/05/25 00:31:13;;;;;;;0.60;0.60;;;;;;;8.67;70.09;97246.97;29396;209;64009;-52
2023/05/25 00:31:44;;;;;;;0.50;0.50;;;;;;;8.65;69.93;97247.25;29397;259;63009;-62
2023/05/25 00:32:15;;;;;;;0.47;0.47;;;;;;;8.65;69.93;97252.66;29396;205;64009;-53
2023/05/25 00:32:46;;;;;;;0.50;0.50;;;;;;;8.67;70.67;97246.97;29397;202;63008;-52
2023/05/25 00:33:18;;;;;;;0.50;0.50;;;;;;;8.67;71.10;97255.88;29396;258;64009;-52
2023/05/25 00:33:49;;;;;;;0.50;0.50;;;;;;;8.65;71.06;97252.66;29396;262;64014;-52
2023/05/25 00:34:21;;;;;;;0.50;0.50;;;;;;;8.68;70.44;97248.59;29397;214;63005;-53
2023/05/25 00:34:53;;;;;;;0.50;0.50;;;;;;;8.69;70.35;97250.22;29397;234;63009;-52
2023/05/25 00:35:24;;;;;;;0.50;0.50;;;;;;;8.70;70.48;97252.66;29397;234;63005;-53
2023/05/25 00:35:57;;;;;;;0.50;0.50;;;;;;;8.71;70.65;97251.56;29397;239;63009;-53
2023/05/25 00:36:28;;;;;;;0.50;0.50;;;;;;;8.72;71.29;97253.19;29397;233;63005;-52
2023/05/25 00:37:00;;;;;;;0.55;0.55;;;;;;;8.72;71.24;97253.19;29397;213;63009;-52
2023/05/25 00:37:31;;;;;;;0.50;0.50;;;;;;;8.73;71.08;97248.59;29397;278;63004;-52
2023/05/25 00:38:02;;;;;;;0.50;0.50;;;;;;;8.75;70.88;97246.41;29397;228;63009;-52
2023/05/25 00:38:34;;;;;;;0.50;0.50;;;;;;;8.76;70.86;97252.66;29397;224;63004;-52
2023/05/25 00:39:08;;;;;;;0.75;0.75;;;;;;;8.76;71.75;97249.94;29396;196;64013;-53
2023/05/25 00:39:39;;;;;;;0.50;0.50;;;;;;;8.76;71.37;97253.44;29397;297;63004;-53
2023/05/25 00:40:15;;;;;;;0.50;0.50;;;;;;;8.79;70.66;97249.41;29397;204;63017;-52
2023/05/25 00:40:47;;;;;;;0.50;0.50;;;;;;;8.80;70.29;97254.53;29397;197;63005;-51
2023/05/25 00:41:21;;;;;;;0.55;0.55;;;;;;;8.82;70.45;97252.38;29397;255;63009;-52
2023/05/25 00:41:57;;;;;;;0.50;0.50;;;;;;;8.82;70.39;97252.38;29395;223;64009;-52
2023/05/25 00:42:30;;;;;;;0.50;0.50;;;;;;;8.83;70.69;97258.59;29397;259;63009;-53
2023/05/25 00:43:02;;;;;;;0.50;0.50;;;;;;;8.80;70.70;97253.72;29397;204;63005;-52
2023/05/25 00:43:33;;;;;;;0.50;0.50;;;;;;;8.79;70.75;97255.63;29397;240;63005;-52
2023/05/25 00:44:05;;;;;;;0.50;0.50;;;;;;;8.79;71.07;97254.81;29396;206;63005;-52
2023/05/25 00:44:36;;;;;;;0.50;0.50;;;;;;;8.78;71.14;97251.28;29396;204;63009;-52
2023/05/25 00:45:08;;;;;;;0.50;0.50;;;;;;;8.79;70.96;97252.09;29395;226;64009;-52
2023/05/25 00:45:39;;;;;;;0.47;0.47;;;;;;;8.80;70.62;97253.72;29397;227;63009;-53
2023/05/25 00:46:15;;;;;;;0.40;0.40;;;;;;;8.80;70.81;97248.31;29396;220;63004;-52
2023/05/25 00:46:49;;;;;;;0.50;0.50;;;;;;;8.81;70.57;97255.34;29396;206;63009;-52
2023/05/25 00:47:21;;;;;;;0.50;0.50;;;;;;;8.82;70.69;97246.16;29395;204;64009;-53
2023/05/25 00:47:54;;;;;;;0.50;0.50;;;;;;;8.84;70.06;97238.56;29396;235;63008;-52
2023/05/25 00:48:26;;;;;;;0.50;0.50;;;;;;;8.86;70.33;97247.22;29396;259;63005;-53
2023/05/25 00:48:58;;;;;;;0.50;0.50;;;;;;;8.88;70.02;97245.88;29396;199;63009;-53
2023/05/25 00:49:32;;;;;;;0.50;0.50;;;;;;;8.89;69.82;97243.97;29396;198;63005;-53
2023/05/25 00:50:09;;;;;;;0.50;0.50;;;;;;;8.91;69.70;97245.34;29395;218;64013;-52
2023/05/25 00:50:41;;;;;;;0.60;0.60;;;;;;;8.92;69.45;97241.53;29396;241;63005;-53
2023/05/25 00:51:14;;;;;;;0.50;0.50;;;;;;;8.93;69.51;97237.75;29396;250;63009;-52
2023/05/25 00:51:47;;;;;;;0.50;0.50;;;;;;;8.93;69.61;97232.34;29396;220;63009;-52
2023/05/25 00:52:18;;;;;;;0.50;0.50;;;;;;;8.94;69.25;97243.97;29396;212;63009;-52
2023/05/25 00:52:50;;;;;;;0.50;0.50;;;;;;;8.93;68.73;97231.53;29395;288;64009;-53
2023/05/25 00:53:21;;;;;;;0.50;0.50;;;;;;;8.94;69.14;97239.38;29396;203;63009;-53
2023/05/25 00:53:53;;;;;;;0.50;0.50;;;;;;;8.94;69.11;97233.16;29396;239;63004;-52
2023/05/25 00:54:27;;;;;;;0.50;0.50;;;;;;;8.94;68.96;97227.72;29396;227;63009;-52
2023/05/25 00:55:01;;;;;;;0.50;0.50;;;;;;;8.93;69.46;97232.34;29396;210;63004;-52
2023/05/25 00:55:38;;;;;;;0.50;0.50;;;;;;;8.93;69.03;97240.47;29396;211;63008;-52
2023/05/25 00:56:19;;;;;;;0.50;0.50;;;;;;;8.95;68.87;97232.06;29396;229;63005;-53
2023/05/25 00:56:56;;;;;;;0.50;0.50;;;;;;;8.95;68.95;97237.47;29396;210;63009;-52
2023/05/25 00:57:32;;;;;;;0.50;0.50;;;;;;;8.93;68.33;97236.94;29396;236;63005;-52
2023/05/25 00:58:05;;;;;;;0.50;0.50;;;;;;;8.92;68.89;97240.72;29395;274;64013;-52
2023/05/25 00:58:40;;;;;;;0.50;0.50;;;;;;;8.92;69.24;97236.13;29396;292;63005;-52
2023/05/25 00:59:16;;;;;;;0.50;0.50;;;;;;;8.91;68.77;97229.09;29396;225;63009;-53
2023/05/25 00:59:52;;;;;;;0.50;0.50;;;;;;;8.90;68.64;97234.78;29396;227;63005;-52
2023/05/25 01:00:24;;;;;;;0.50;0.50;;;;;;;8.89;68.97;97233.16;29396;307;63009;-52
2023/05/25 01:00:57;;;;;;;0.50;0.50;;;;;;;8.87;70.05;97233.44;29396;241;63004;-52
2023/05/25 01:01:32;;;;;;;0.50;0.50;;;;;;;8.87;70.03;97238.03;29396;223;63009;-52
2023/05/25 01:02:07;;;;;;;0.50;0.50;;;;;;;8.87;69.83;97243.44;29396;197;63004;-60
2023/05/25 01:02:42;;;;;;;0.50;0.50;;;;;;;8.86;70.14;97236.41;29395;218;64013;-52
2023/05/25 01:03:20;;;;;;;0.60;0.60;;;;;;;8.85;69.98;97229.38;29396;312;63004;-52
2023/05/25 01:03:55;;;;;;;0.50;0.50;;;;;;;8.84;70.99;97235.88;29396;252;63009;-52
2023/05/25 01:04:29;;;;;;;0.47;0.47;;;;;;;8.81;70.48;97234.50;29395;206;64009;-52
2023/05/25 01:05:05;;;;;;;0.60;0.60;;;;;;;8.80;70.10;97234.78;29396;208;63009;-52
2023/05/25 01:05:41;;;;;;;0.60;0.60;;;;;;;8.78;70.60;97231.53;29395;296;64007;-53
2023/05/25 01:06:16;;;;;;;0.50;0.50;;;;;;;8.73;71.02;97233.16;29396;257;63009;-52
2023/05/25 01:06:49;;;;;;;0.50;0.50;;;;;;;8.72;71.02;97236.94;29396;328;63011;-52
2023/05/25 01:07:25;;;;;;;0.60;0.60;;;;;;;8.67;71.36;97234.25;29396;284;63009;-52
2023/05/25 01:08:00;;;;;;;0.50;0.50;;;;;;;8.64;70.54;97228.59;29396;232;63004;-52
2023/05/25 01:08:34;;;;;;;0.60;0.60;;;;;;;8.62;70.45;97231.56;29396;210;63009;-52
2023/05/25 01:09:10;;;;;;;0.50;0.50;;;;;;;8.62;70.83;97236.16;29395;216;64009;-52
2023/05/25 01:09:44;;;;;;;0.50;0.50;;;;;;;8.61;71.09;97229.94;29396;197;63014;-60
2023/05/25 01:10:18;;;;;;;0.50;0.50;;;;;;;8.59;71.49;97234.81;29396;199;63004;-52
2023/05/25 01:10:51;;;;;;;0.50;0.50;;;;;;;8.60;70.80;97241.84;29395;282;64013;-52
2023/05/25 01:11:31;;;;;;;0.55;0.55;;;;;;;8.63;70.88;97244.00;29396;278;63005;-53
2023/05/25 01:12:03;;;;;;;0.50;0.50;;;;;;;8.63;70.90;97238.59;29396;239;63009;-52
2023/05/25 01:12:38;;;;;;;0.50;0.50;;;;;;;8.63;71.06;97237.78;29396;233;63005;-52
2023/05/25 01:13:11;;;;;;;0.50;0.50;;;;;;;8.61;71.12;97242.66;29396;206;63009;-52
2023/05/25 01:13:44;;;;;;;0.50;0.50;;;;;;;8.58;70.85;97237.78;29396;281;63005;-61
2023/05/25 01:14:20;;;;;;;0.50;0.50;;;;;;;8.54;71.51;97245.62;29395;204;64013;-51
2023/05/25 01:14:54;;;;;;;0.50;0.50;;;;;;;8.49;71.32;97240.22;29396;216;63005;-53
2023/05/25 01:15:27;;;;;;;0.50;0.50;;;;;;;8.47;72.12;97245.09;29396;250;63015;-52
2023/05/25 01:15:59;;;;;;;0.50;0.50;;;;;;;8.46;71.87;97248.06;29395;203;64009;-52
2023/05/25 01:16:31;;;;;;;0.50;0.50;;;;;;;8.46;72.33;97243.47;29396;329;63009;-52
2023/05/25 01:17:05;;;;;;;0.50;0.50;;;;;;;8.42;71.95;97236.97;29396;219;63004;-53
2023/05/25 01:17:37;;;;;;;0.50;0.50;;;;;;;8.37;72.37;97245.06;29396;220;63009;-53
2023/05/25 01:18:08;;;;;;;0.50;0.50;;;;;;;8.34;72.16;97235.59;29395;206;64000;-52
2023/05/25 01:18:40;;;;;;;0.50;0.50;;;;;;;8.34;72.12;97241.03;29396;235;63009;-51
2023/05/25 01:19:12;;;;;;;0.50;0.50;;;;;;;8.33;72.30;97242.09;29396;235;63005;-52
2023/05/25 01:19:47;;;;;;;0.50;0.50;;;;;;;8.34;72.59;97242.91;29395;226;64014;-52
2023/05/25 01:20:19;;;;;;;0.50;0.50;;;;;;;8.34;73.16;97240.22;29396;222;63005;-52
2023/05/25 01:21:11;;;;;;;0.50;0.50;;;;;;;8.30;72.42;97234.53;29395;225;64013;-52
2023/05/25 01:22:14;;;;;;;0.70;0.70;;;;;;;8.26;72.02;97238.03;29396;223;63008;-60
2023/05/25 01:23:13;;;;;;;0.60;0.60;;;;;;;8.29;71.43;97232.09;29396;202;63009;-52
2023/05/25 01:24:10;;;;;;;0.60;0.60;;;;;;;8.35;71.55;97231.00;29395;248;64009;-52
2023/05/25 01:24:55;;;;;;;0.50;0.50;;;;;;;8.32;71.96;97228.81;29396;275;63017;-52
2023/05/25 01:25:50;;;;;;;0.50;0.50;;;;;;;8.31;71.67;97235.34;29396;215;63004;-52
2023/05/25 01:26:26;;;;;;;0.50;0.50;;;;;;;8.34;71.69;97234.81;29396;203;63009;-52
2023/05/25 01:27:05;;;;;;;0.50;0.50;;;;;;;8.39;71.19;97237.50;29395;207;64001;-52
2023/05/25 01:27:45;;;;;;;0.50;0.50;;;;;;;8.42;70.99;97236.16;29396;224;63009;-52
2023/05/25 01:28:28;;;;;;;0.60;0.60;;;;;;;8.42;71.00;97231.56;29418;244;63005;-52
2023/05/25 01:29:02;;;;;;;0.60;0.60;;;;;;;8.42;71.88;97236.16;29396;196;63009;-52
2023/05/25 01:29:36;;;;;;;0.50;0.50;;;;;;;8.40;72.86;97242.66;29396;214;63008;-53
2023/05/25 01:30:12;;;;;;;9.00;8.60;;;;;;;8.39;72.44;97242.91;29394;210;65009;-52
2023/05/25 01:30:46;;;;;;;0.50;0.50;;;;;;;8.43;71.43;97233.19;29396;202;63008;-53
2023/05/25 01:31:21;;;;;;;0.50;0.50;;;;;;;8.44;71.24;97229.41;29396;222;63009;-52
2023/05/25 01:31:53;;;;;;;0.50;0.50;;;;;;;8.44;71.23;97232.09;29396;203;63004;-52
2023/05/25 01:32:26;;;;;;;0.50;0.50;;;;;;;8.44;71.94;97229.41;29395;218;64013;-52
2023/05/25 01:32:59;;;;;;;0.50;0.50;;;;;;;8.40;71.60;97233.72;29396;244;63004;-52
2023/05/25 01:33:35;;;;;;;0.50;0.50;;;;;;;8.37;71.75;97232.38;29396;212;63024;-53
2023/05/25 01:35:16;;;;;;;0.53;0.53;;;;;;;8.36;72.78;97235.34;87944;218;145000;-90
2023/05/25 01:35:54;;;;;;;0.50;0.50;;;;;;;8.35;72.80;97236.44;29394;210;64009;-91
2023/05/25 01:36:27;;;;;;;0.50;0.50;;;;;;;8.37;72.54;97228.84;29395;207;63005;-90
2023/05/25 01:37:00;;;;;;;0.50;0.50;;;;;;;8.39;72.25;97237.50;29395;236;63009;-90
2023/05/25 01:37:36;;;;;;;0.50;0.50;;;;;;;8.40;72.05;97229.13;29395;199;63005;-90
2023/05/25 01:38:10;;;;;;;0.50;0.50;;;;;;;8.38;71.65;97238.59;29395;202;63009;-92
2023/05/25 01:38:44;;;;;;;0.50;0.50;;;;;;;8.33;71.80;97225.06;29395;209;63004;-88
2023/05/25 01:39:15;;;;;;;0.50;0.50;;;;;;;8.36;72.74;97238.03;29394;202;64013;-90
2023/05/25 01:39:47;;;;;;;0.50;0.50;;;;;;;8.28;72.87;97235.88;29395;197;63004;-91
2023/05/25 01:40:18;;;;;;;0.43;0.43;;;;;;;8.30;73.44;97233.72;29395;241;63009;-90
2023/05/25 01:40:51;;;;;;;0.50;0.50;;;;;;;8.32;73.18;97237.78;29395;205;63004;-91
2023/05/25 01:41:23;;;;;;;0.50;0.50;;;;;;;8.35;72.75;97239.12;29395;235;63009;-90
2023/05/25 01:41:54;;;;;;;0.50;0.50;;;;;;;8.36;73.53;97240.75;29395;388;63005;-89
2023/05/25 01:42:26;;;;;;;0.50;0.50;;;;;;;8.34;73.37;97241.03;29395;262;63009;-90
2023/05/25 01:42:57;;;;;;;0.50;0.50;;;;;;;8.31;73.87;97240.75;29395;223;63005;-90
2023/05/25 01:43:31;;;;;;;0.50;0.50;;;;;;;8.28;73.73;97238.56;29395;258;63009;-89
2023/05/25 01:44:06;;;;;;;0.50;0.50;;;;;;;8.27;73.25;97240.47;29395;196;63009;-89
2023/05/25 01:44:38;;;;;;;0.50;0.50;;;;;;;8.28;73.15;97241.28;29394;328;64013;-90
2023/05/25 01:45:13;;;;;;;1.40;1.40;;;;;;;8.29;73.19;97240.19;29395;227;63005;-93
2023/05/25 01:45:45;;;;;;;0.50;0.50;;;;;;;8.29;72.75;97243.72;29394;242;64013;-89
2023/05/25 01:46:35;;;;;;;0.50;0.50;;;;;;;8.20;73.88;97229.09;29395;234;63004;-89
2023/05/25 01:47:37;;;;;;;0.50;0.50;;;;;;;8.30;72.78;97241.81;29395;217;63009;-90
2023/05/25 01:48:34;;;;;;;0.50;0.50;;;;;;;8.28;73.60;97243.97;29416;202;64008;-91
2023/05/25 01:49:28;;;;;;;0.50;0.50;;;;;;;8.26;72.74;97246.16;29395;197;63005;-91
2023/05/25 01:50:30;;;;;;;0.50;0.50;;;;;;;8.24;73.12;97248.31;29395;252;63009;-90
2023/05/25 01:51:10;;;;;;;0.50;0.50;;;;;;;8.24;73.13;97251.00;29417;210;63005;-92
2023/05/25 01:52:03;;;;;;;0.50;0.50;;;;;;;8.22;72.91;97242.34;29395;212;63009;-91
2023/05/25 01:52:44;;;;;;;0.50;0.50;;;;;;;8.17;73.40;97242.34;29394;276;64009;-91
2023/05/25 01:53:21;;;;;;;0.60;0.60;;;;;;;8.15;73.71;97247.19;29417;316;63009;-92
2023/05/25 01:53:59;;;;;;;0.50;0.50;;;;;;;8.13;73.49;97243.97;29395;238;63006;-92
2023/05/25 01:54:38;;;;;;;0.50;0.50;;;;;;;8.12;73.55;97247.75;29395;218;63009;-91
2023/05/25 01:55:16;;;;;;;0.60;0.60;;;;;;;8.12;73.57;97242.34;29395;218;63004;-91
2023/05/25 01:56:07;;;;;;;0.60;0.60;;;;;;;8.12;73.35;97243.13;29395;214;63008;-91
2023/05/25 01:56:41;;;;;;;0.50;0.50;;;;;;;8.15;72.91;97247.19;29395;278;63005;-91
2023/05/25 01:57:17;;;;;;;0.50;0.50;;;;;;;8.14;73.59;97234.75;29394;210;64014;-91
2023/05/25 01:57:56;;;;;;;0.57;0.57;;;;;;;8.13;73.12;97246.66;29394;236;64009;-90
2023/05/25 01:58:35;;;;;;;0.50;0.50;;;;;;;8.12;73.37;97243.13;29395;216;63009;-90
2023/05/25 01:59:09;;;;;;;0.50;0.50;;;;;;;8.10;73.48;97244.50;29394;245;64009;-90
2023/05/25 01:59:47;;;;;;;0.50;0.50;;;;;;;8.06;73.47;97236.09;29395;213;63009;-91
2023/05/25 02:00:32;;;;;;;0.50;0.50;;;;;;;8.05;73.76;97243.41;29395;231;63005;-91
2023/05/25 02:01:14;;;;;;;0.50;0.50;;;;;;;8.06;73.28;97247.72;29395;322;63009;-90
2023/05/25 02:01:49;;;;;;;0.50;0.50;;;;;;;8.07;73.27;97252.06;29395;221;63004;-89
2023/05/25 02:02:21;;;;;;;0.50;0.50;;;;;;;8.05;73.44;97243.41;29394;212;64013;-89
2023/05/25 02:02:54;;;;;;;0.60;0.60;;;;;;;8.05;73.34;97238.00;29394;204;64009;-90
2023/05/25 02:03:27;;;;;;;0.50;0.50;;;;;;;8.03;74.85;97245.56;29395;206;63008;-92
2023/05/25 02:03:59;;;;;;;0.57;0.57;;;;;;;7.94;75.06;97233.66;29395;220;63005;-90
2023/05/25 02:04:31;;;;;;;0.50;0.50;;;;;;;8.01;74.84;97238.78;29395;227;63009;-91
2023/05/25 02:05:04;;;;;;;0.93;0.93;;;;;;;8.02;74.27;97248.53;29395;243;63017;-89
2023/05/25 02:05:40;;;;;;;0.50;0.50;;;;;;;8.02;74.36;97243.94;29395;326;63009;-91
2023/05/25 02:06:12;;;;;;;0.60;0.60;;;;;;;8.02;74.26;97241.22;29394;198;64009;-90
2023/05/25 02:06:48;;;;;;;0.50;0.50;;;;;;;8.02;74.21;97238.53;29395;238;63009;-91
2023/05/25 02:07:25;;;;;;;0.50;0.50;;;;;;;8.00;73.90;97235.28;29395;225;63007;-91
2023/05/25 02:07:56;;;;;;;0.50;0.50;;;;;;;7.98;74.28;97237.44;29394;222;64013;-90
2023/05/25 02:08:27;;;;;;;0.50;0.50;;;;;;;7.99;73.75;97239.06;29395;230;63004;-91
2023/05/25 02:08:59;;;;;;;0.50;0.50;;;;;;;7.99;74.17;97243.66;29395;285;63009;-91
2023/05/25 02:09:31;;;;;;;0.50;0.50;;;;;;;7.97;74.59;97241.22;29395;209;63004;-91
2023/05/25 02:10:03;;;;;;;0.50;0.50;;;;;;;7.96;74.63;97231.50;29395;255;63025;-91
2023/05/25 02:10:53;;;;;;;;;;;;;;;;;;;;;
2023/05/25 02:11:27;;;;;;;0.50;0.50;;;;;;;7.93;74.89;97237.44;29394;211;64012;-89
2023/05/25 02:12:01;;;;;;;0.50;0.50;;;;;;;7.91;74.93;97238.78;29395;197;63005;-90
2023/05/25 02:12:58;;;;;;;0.60;0.60;;;;;;;7.88;75.07;97237.44;29395;197;63009;-92
2023/05/25 02:13:30;;;;;;;0.60;0.60;;;;;;;7.83;75.06;97225.81;29395;227;63005;-89
2023/05/25 02:14:02;;;;;;;0.50;0.50;;;;;;;7.87;75.70;97235.81;29395;244;63009;-89
2023/05/25 02:14:34;;;;;;;0.50;0.50;;;;;;;7.83;75.65;97237.41;29394;263;64009;-90
2023/05/25 02:15:07;;;;;;;0.50;0.50;;;;;;;7.80;75.18;97229.84;29395;198;63009;-91
2023/05/25 02:15:38;;;;;;;0.50;0.50;;;;;;;7.80;75.51;97229.03;29395;259;63005;-90
2023/05/25 02:16:10;;;;;;;0.50;0.50;;;;;;;7.79;75.88;97222.81;29395;218;63009;-91
2023/05/25 02:16:41;;;;;;;0.55;0.55;;;;;;;7.74;76.08;97222.81;29394;220;64009;-91
2023/05/25 02:17:13;;;;;;;0.60;0.60;;;;;;;7.70;76.45;97219.00;29395;204;63004;-93
2023/05/25 02:17:44;;;;;;;0.50;0.50;;;;;;;7.77;76.00;97227.69;29395;205;63004;-91
2023/05/25 02:18:16;;;;;;;0.50;0.50;;;;;;;7.77;75.71;97224.16;29395;202;63008;-90
2023/05/25 02:18:49;;;;;;;0.50;0.50;;;;;;;7.77;75.68;97222.28;29395;226;63004;-92
2023/05/25 02:19:21;;;;;;;0.50;0.50;;;;;;;7.77;75.65;97216.88;29395;210;63009;-91
2023/05/25 02:19:53;;;;;;;0.60;0.60;;;;;;;7.79;75.08;97222.81;29395;238;63005;-90
2023/05/25 02:20:26;;;;;;;0.50;0.50;;;;;;;7.81;75.29;97225.25;29395;207;63018;-93
2023/05/25 02:20:58;;;;;;;0.60;0.60;;;;;;;7.82;75.07;97222.28;29395;197;63005;-91
2023/05/25 02:21:30;;;;;;;0.57;0.57;;;;;;;7.82;75.38;97216.88;29394;206;64013;-91
2023/05/25 02:22:01;;;;;;;0.50;0.50;;;;;;;7.84;75.22;97217.44;29395;224;63000;-89
2023/05/25 02:22:36;;;;;;;0.43;0.43;;;;;;;7.86;75.01;97212.56;29395;213;63009;-90
2023/05/25 02:23:10;;;;;;;0.50;0.50;;;;;;;7.87;75.31;97216.91;29395;234;63005;-92
2023/05/25 02:23:45;;;;;;;0.50;0.50;;;;;;;7.90;75.11;97223.66;29395;252;63009;-91
2023/05/25 02:24:20;;;;;;;0.50;0.50;;;;;;;7.90;74.98;97216.38;29395;204;63004;-91
2023/05/25 02:25:02;;;;;;;0.50;0.50;;;;;;;7.93;74.57;97213.13;29395;208;63009;-90
2023/05/25 02:25:41;;;;;;;0.50;0.50;;;;;;;7.91;75.48;97212.59;29394;305;64009;-91
2023/05/25 02:26:15;;;;;;;0.50;0.50;;;;;;;7.89;75.23;97217.44;29395;222;63018;-91
2023/05/25 02:26:47;;;;;;;0.50;0.50;;;;;;;7.87;75.40;97216.91;29395;208;63005;-91
2023/05/25 02:27:20;;;;;;;0.57;0.57;;;;;;;7.84;75.32;97214.72;29395;279;63009;-92
2023/05/25 02:27:52;;;;;;;0.50;0.50;;;;;;;7.86;75.59;97217.16;29394;297;64009;-92
2023/05/25 02:28:25;;;;;;;0.50;0.50;;;;;;;7.86;75.04;97223.38;29395;275;63009;-89
2023/05/25 02:29:04;;;;;;;0.50;0.50;;;;;;;7.91;74.87;97219.87;29395;211;63005;-90
2023/05/25 02:29:36;;;;;;;0.60;0.60;;;;;;;7.93;74.43;97229.34;29395;240;63018;-91
2023/05/25 02:30:09;;;;;;;0.50;0.50;;;;;;;7.91;74.22;97223.41;29394;246;64009;-89
2023/05/25 02:30:42;;;;;;;0.50;0.50;;;;;;;7.85;75.15;97216.34;29394;229;64013;-89
2023/05/25 02:31:14;;;;;;;0.50;0.50;;;;;;;7.89;75.49;97216.63;29395;198;63004;-90
2023/05/25 02:31:47;;;;;;;0.50;0.50;;;;;;;7.86;75.42;97217.16;29395;351;63009;-91
2023/05/25 02:32:20;;;;;;;0.50;0.50;;;;;;;7.84;75.25;97224.72;29395;197;63004;-89
2023/05/25 02:32:52;;;;;;;0.50;0.50;;;;;;;7.86;75.25;97217.97;29394;270;64013;-90
2023/05/25 02:33:24;;;;;;;0.50;0.50;;;;;;;7.89;74.81;97208.53;29395;261;63004;-91
2023/05/25 02:34:00;;;;;;;0.50;0.50;;;;;;;7.84;74.50;97203.94;29395;218;63008;-91
2023/05/25 02:34:31;;;;;;;0.50;0.50;;;;;;;7.95;74.10;97215.56;29395;287;63005;-92
2023/05/25 02:35:03;;;;;;;0.50;0.50;;;;;;;7.96;73.87;97215.31;29395;282;63009;-91
2023/05/25 02:35:34;;;;;;;0.50;0.50;;;;;;;7.89;73.31;97206.63;29395;215;63005;-91
2023/05/25 02:36:07;;;;;;;0.50;0.50;;;;;;;7.98;73.16;97212.31;29395;202;63009;-90
2023/05/25 02:36:42;;;;;;;0.50;0.50;;;;;;;7.99;73.89;97212.03;29395;309;63005;-91
2023/05/25 02:37:14;;;;;;;0.50;0.50;;;;;;;8.00;74.07;97219.06;29395;224;63009;-91
2023/05/25 02:37:46;;;;;;;0.50;0.50;;;;;;;7.96;73.37;97211.78;29395;230;63004;-93
2023/05/25 02:38:19;;;;;;;0.50;0.50;;;;;;;7.98;73.51;97210.41;29394;236;64013;-91
2023/05/25 02:38:54;;;;;;;0.50;0.50;;;;;;;7.99;73.94;97209.34;29395;276;63004;-94
2023/05/25 02:39:26;;;;;;;0.60;0.60;;;;;;;7.94;73.73;97209.34;29395;202;63009;-91
2023/05/25 02:39:58;;;;;;;0.50;0.50;;;;;;;7.96;73.53;97206.38;29395;209;63009;-90
2023/05/25 02:40:30;;;;;;;0.50;0.50;;;;;;;7.96;74.07;97211.78;29395;217;63008;-90
2023/05/25 02:41:01;;;;;;;0.50;0.50;;;;;;;7.96;74.26;97207.19;29394;223;64008;-91
2023/05/25 02:41:33;;;;;;;0.50;0.50;;;;;;;7.95;74.08;97210.97;29395;246;63008;-90
2023/05/25 02:42:05;;;;;;;0.50;0.50;;;;;;;7.93;74.20;97218.53;29395;213;63005;-90
2023/05/25 02:42:36;;;;;;;0.55;0.55;;;;;;;7.94;74.36;97214.75;29395;267;63009;-89
2023/05/25 02:43:07;;;;;;;0.50;0.50;;;;;;;7.92;74.63;97211.50;29395;206;63005;-92
2023/05/25 02:43:39;;;;;;;0.50;0.50;;;;;;;7.91;74.83;97204.47;29394;206;64013;-90
2023/05/25 02:44:10;;;;;;;0.50;0.50;;;;;;;7.90;74.80;97205.56;29395;217;63004;-90
2023/05/25 02:44:47;;;;;;;0.50;0.50;;;;;;;7.91;74.98;97214.47;29394;309;64013;-90
2023/05/25 02:45:19;;;;;;;0.50;0.50;;;;;;;7.90;74.93;97212.84;29395;270;63004;-91
2023/05/25 02:45:51;;;;;;;0.52;0.52;;;;;;;7.89;74.52;97212.03;29395;224;63009;-90
2023/05/25 02:46:25;;;;;;;0.50;0.50;;;;;;;7.89;74.06;97209.34;29395;228;63004;-90
2023/05/25 02:46:57;;;;;;;0.50;0.50;;;;;;;7.90;74.35;97208.25;29395;309;63009;-91
2023/05/25 02:47:29;;;;;;;0.50;0.50;;;;;;;7.87;75.27;97214.19;29395;196;63004;-89